sensor_id;sensor_type;location;lat;lon;timestamp;pressure;altitude;pressure_sealevel;temperature;humidity
35307;BME280;21420;52.196;21.416;2023-02-28T00:01:25;101742.65;;;-4.55;60.53
35307;BME280;21420;52.196;21.416;2023-02-28T00:03:53;101743.13;;;-4.62;60.55
35307;BME280;21420;52.196;21.416;2023-02-28T00:06:20;101741.80;;;-4.66;60.53
35307;BME280;21420;52.196;21.416;2023-02-28T00:08:48;101740.84;;;-4.70;60.56
35307;BME280;21420;52.196;21.416;2023-02-28T00:11:15;101741.20;;;-4.73;60.56
35307;BME280;21420;52.196;21.416;2023-02-28T00:13:45;101740.45;;;-4.76;60.54
35307;BME280;21420;52.196;21.416;2023-02-28T00:16:19;101745.68;;;-4.77;60.65
35307;BME280;21420;52.196;21.416;2023-02-28T00:18:47;101746.16;;;-4.80;60.72
35307;BME280;21420;52.196;21.416;2023-02-28T00:21:16;101747.98;;;-4.83;60.68
35307;BME280;21420;52.196;21.416;2023-02-28T00:23:43;101751.41;;;-4.91;60.62
35307;BME280;21420;52.196;21.416;2023-02-28T00:26:11;101752.64;;;-4.96;60.68
35307;BME280;21420;52.196;21.416;2023-02-28T00:28:40;101751.33;;;-4.93;60.75
35307;BME280;21420;52.196;21.416;2023-02-28T00:31:07;101753.44;;;-4.89;60.99
35307;BME280;21420;52.196;21.416;2023-02-28T00:33:34;101758.39;;;-4.87;60.85
35307;BME280;21420;52.196;21.416;2023-02-28T00:36:03;101758.64;;;-4.85;61.10
35307;BME280;21420;52.196;21.416;2023-02-28T00:38:32;101756.97;;;-4.82;61.16
35307;BME280;21420;52.196;21.416;2023-02-28T00:40:59;101755.45;;;-4.80;61.31
35307;BME280;21420;52.196;21.416;2023-02-28T00:43:33;101757.64;;;-4.77;61.23
35307;BME280;21420;52.196;21.416;2023-02-28T00:46:03;101756.41;;;-4.76;61.32
35307;BME280;21420;52.196;21.416;2023-02-28T00:48:31;101756.08;;;-4.78;61.47
35307;BME280;21420;52.196;21.416;2023-02-28T00:50:59;101756.84;;;-4.81;61.40
35307;BME280;21420;52.196;21.416;2023-02-28T00:53:26;101758.72;;;-4.86;61.16
35307;BME280;21420;52.196;21.416;2023-02-28T00:55:52;101756.00;;;-4.88;61.19
35307;BME280;21420;52.196;21.416;2023-02-28T00:58:20;101754.40;;;-4.87;61.35
35307;BME280;21420;52.196;21.416;2023-02-28T01:00:46;101754.56;;;-4.87;61.35
35307;BME280;21420;52.196;21.416;2023-02-28T01:03:17;101752.51;;;-4.89;61.43
35307;BME280;21420;52.196;21.416;2023-02-28T01:05:45;101748.91;;;-4.91;61.46
35307;BME280;21420;52.196;21.416;2023-02-28T01:08:12;101749.88;;;-4.96;61.48
35307;BME280;21420;52.196;21.416;2023-02-28T01:10:40;101751.89;;;-4.99;61.63
35307;BME280;21420;52.196;21.416;2023-02-28T01:13:08;101751.41;;;-5.04;61.56
35307;BME280;21420;52.196;21.416;2023-02-28T01:15:36;101748.73;;;-5.11;61.57
35307;BME280;21420;52.196;21.416;2023-02-28T01:18:04;101745.75;;;-5.16;61.53
35307;BME280;21420;52.196;21.416;2023-02-28T01:20:31;101747.19;;;-5.20;61.56
35307;BME280;21420;52.196;21.416;2023-02-28T01:22:58;101746.39;;;-5.24;61.62
35307;BME280;21420;52.196;21.416;2023-02-28T01:25:26;101749.25;;;-5.27;61.61
35307;BME280;21420;52.196;21.416;2023-02-28T01:27:53;101749.29;;;-5.41;61.43
35307;BME280;21420;52.196;21.416;2023-02-28T01:30:20;101749.09;;;-5.55;61.34
35307;BME280;21420;52.196;21.416;2023-02-28T01:32:47;101749.81;;;-5.62;61.43
35307;BME280;21420;52.196;21.416;2023-02-28T01:35:14;101750.63;;;-5.69;61.41
35307;BME280;21420;52.196;21.416;2023-02-28T01:37:41;101752.05;;;-5.71;61.43
35307;BME280;21420;52.196;21.416;2023-02-28T01:40:08;101753.71;;;-5.73;61.56
35307;BME280;21420;52.196;21.416;2023-02-28T01:42:35;101756.03;;;-5.72;61.77
35307;BME280;21420;52.196;21.416;2023-02-28T01:45:22;101755.45;;;-5.71;61.88
35307;BME280;21420;52.196;21.416;2023-02-28T01:47:55;101759.73;;;-5.77;61.69
35307;BME280;21420;52.196;21.416;2023-02-28T01:50:27;101763.65;;;-5.84;61.75
35307;BME280;21420;52.196;21.416;2023-02-28T01:53:00;101764.75;;;-5.86;61.80
35307;BME280;21420;52.196;21.416;2023-02-28T01:55:31;101765.84;;;-5.88;61.75
35307;BME280;21420;52.196;21.416;2023-02-28T01:58:02;101765.83;;;-5.83;62.02
35307;BME280;21420;52.196;21.416;2023-02-28T02:00:31;101764.95;;;-5.80;62.14
35307;BME280;21420;52.196;21.416;2023-02-28T02:03:05;101767.05;;;-5.84;61.97
35307;BME280;21420;52.196;21.416;2023-02-28T02:05:37;101760.86;;;-5.92;61.90
35307;BME280;21420;52.196;21.416;2023-02-28T02:08:11;101755.62;;;-5.97;62.05
35307;BME280;21420;52.196;21.416;2023-02-28T02:10:41;101758.86;;;-5.96;62.14
35307;BME280;21420;52.196;21.416;2023-02-28T02:22:36;101759.73;;;-5.93;62.55
35307;BME280;21420;52.196;21.416;2023-02-28T02:36:18;101764.23;;;-6.12;62.55
35307;BME280;21420;52.196;21.416;2023-02-28T02:39:15;101766.28;;;-6.12;62.60
35307;BME280;21420;52.196;21.416;2023-02-28T02:41:54;101761.98;;;-6.11;62.60
35307;BME280;21420;52.196;21.416;2023-02-28T02:44:30;101766.58;;;-6.12;62.53
35307;BME280;21420;52.196;21.416;2023-02-28T02:47:03;101768.52;;;-6.16;62.48
35307;BME280;21420;52.196;21.416;2023-02-28T02:49:35;101770.55;;;-6.21;62.49
35307;BME280;21420;52.196;21.416;2023-02-28T02:52:03;101772.52;;;-6.21;62.70
35307;BME280;21420;52.196;21.416;2023-02-28T02:54:35;101769.89;;;-6.24;62.79
35307;BME280;21420;52.196;21.416;2023-02-28T02:57:08;101771.59;;;-6.28;62.81
35307;BME280;21420;52.196;21.416;2023-02-28T02:59:39;101774.86;;;-6.33;62.74
35307;BME280;21420;52.196;21.416;2023-02-28T03:02:11;101779.66;;;-6.37;62.75
35307;BME280;21420;52.196;21.416;2023-02-28T03:04:42;101777.98;;;-6.39;62.74
35307;BME280;21420;52.196;21.416;2023-02-28T03:07:10;101777.58;;;-6.39;62.75
35307;BME280;21420;52.196;21.416;2023-02-28T03:09:37;101777.40;;;-6.37;62.86
35307;BME280;21420;52.196;21.416;2023-02-28T03:12:09;101774.67;;;-6.35;62.94
35307;BME280;21420;52.196;21.416;2023-02-28T03:14:56;101779.67;;;-6.36;62.94
35307;BME280;21420;52.196;21.416;2023-02-28T03:20:42;101779.64;;;-6.40;63.01
35307;BME280;21420;52.196;21.416;2023-02-28T03:23:16;101780.39;;;-6.42;62.94
35307;BME280;21420;52.196;21.416;2023-02-28T03:26:02;101784.21;;;-6.45;62.91
35307;BME280;21420;52.196;21.416;2023-02-28T03:31:38;101783.70;;;-6.42;62.86
35307;BME280;21420;52.196;21.416;2023-02-28T03:34:12;101783.19;;;-6.37;62.82
35307;BME280;21420;52.196;21.416;2023-02-28T03:36:53;101779.94;;;-6.34;63.04
35307;BME280;21420;52.196;21.416;2023-02-28T03:39:38;101783.98;;;-6.30;62.95
35307;BME280;21420;52.196;21.416;2023-02-28T03:42:28;101783.27;;;-6.29;62.88
35307;BME280;21420;52.196;21.416;2023-02-28T03:45:10;101785.09;;;-6.36;62.95
35307;BME280;21420;52.196;21.416;2023-02-28T03:47:41;101786.64;;;-6.44;62.80
35307;BME280;21420;52.196;21.416;2023-02-28T03:50:24;101785.77;;;-6.49;62.67
35307;BME280;21420;52.196;21.416;2023-02-28T03:52:58;101790.21;;;-6.47;62.72
35307;BME280;21420;52.196;21.416;2023-02-28T03:55:37;101793.23;;;-6.44;62.95
35307;BME280;21420;52.196;21.416;2023-02-28T03:58:13;101796.90;;;-6.43;62.94
35307;BME280;21420;52.196;21.416;2023-02-28T04:00:46;101796.03;;;-6.43;62.99
35307;BME280;21420;52.196;21.416;2023-02-28T04:03:15;101791.23;;;-6.44;63.05
35307;BME280;21420;52.196;21.416;2023-02-28T04:05:50;101794.84;;;-6.45;63.19
35307;BME280;21420;52.196;21.416;2023-02-28T04:08:17;101788.68;;;-6.45;63.05
35307;BME280;21420;52.196;21.416;2023-02-28T04:10:50;101787.80;;;-6.47;63.20
35307;BME280;21420;52.196;21.416;2023-02-28T04:13:19;101789.14;;;-6.49;63.11
35307;BME280;21420;52.196;21.416;2023-02-28T04:15:46;101793.70;;;-6.51;63.07
35307;BME280;21420;52.196;21.416;2023-02-28T04:18:13;101791.27;;;-6.52;63.04
35307;BME280;21420;52.196;21.416;2023-02-28T04:20:40;101790.23;;;-6.51;63.07
35307;BME280;21420;52.196;21.416;2023-02-28T04:23:12;101790.58;;;-6.49;63.13
35307;BME280;21420;52.196;21.416;2023-02-28T04:25:39;101797.27;;;-6.50;63.12
35307;BME280;21420;52.196;21.416;2023-02-28T04:28:06;101798.13;;;-6.52;63.21
35307;BME280;21420;52.196;21.416;2023-02-28T04:30:33;101795.58;;;-6.52;63.27
35307;BME280;21420;52.196;21.416;2023-02-28T04:33:00;101794.66;;;-6.54;63.37
35307;BME280;21420;52.196;21.416;2023-02-28T04:35:27;101792.70;;;-6.56;63.26
35307;BME280;21420;52.196;21.416;2023-02-28T04:37:54;101790.21;;;-6.59;63.30
35307;BME280;21420;52.196;21.416;2023-02-28T04:40:21;101792.04;;;-6.61;63.38
35307;BME280;21420;52.196;21.416;2023-02-28T04:42:48;101793.14;;;-6.61;63.35
35307;BME280;21420;52.196;21.416;2023-02-28T04:45:15;101792.59;;;-6.61;63.30
35307;BME280;21420;52.196;21.416;2023-02-28T04:47:41;101792.98;;;-6.61;63.15
35307;BME280;21420;52.196;21.416;2023-02-28T04:50:09;101795.69;;;-6.65;63.20
35307;BME280;21420;52.196;21.416;2023-02-28T04:52:36;101796.96;;;-6.63;63.19
35307;BME280;21420;52.196;21.416;2023-02-28T04:55:03;101796.94;;;-6.62;63.38
35307;BME280;21420;52.196;21.416;2023-02-28T04:57:30;101800.86;;;-6.60;63.41
35307;BME280;21420;52.196;21.416;2023-02-28T04:59:57;101799.77;;;-6.62;63.52
35307;BME280;21420;52.196;21.416;2023-02-28T05:02:23;101800.73;;;-6.64;63.54
35307;BME280;21420;52.196;21.416;2023-02-28T05:04:51;101803.68;;;-6.66;63.62
35307;BME280;21420;52.196;21.416;2023-02-28T05:07:17;101805.95;;;-6.70;63.53
35307;BME280;21420;52.196;21.416;2023-02-28T05:09:44;101810.52;;;-6.73;63.50
35307;BME280;21420;52.196;21.416;2023-02-28T05:12:11;101813.20;;;-6.71;63.58
35307;BME280;21420;52.196;21.416;2023-02-28T05:14:38;101814.75;;;-6.68;63.60
35307;BME280;21420;52.196;21.416;2023-02-28T05:17:05;101820.64;;;-6.65;63.55
35307;BME280;21420;52.196;21.416;2023-02-28T05:19:32;101820.45;;;-6.67;63.52
35307;BME280;21420;52.196;21.416;2023-02-28T05:21:59;101825.89;;;-6.72;63.32
35307;BME280;21420;52.196;21.416;2023-02-28T05:24:26;101831.06;;;-6.75;63.50
35307;BME280;21420;52.196;21.416;2023-02-28T05:26:54;101837.44;;;-6.73;63.58
35307;BME280;21420;52.196;21.416;2023-02-28T05:29:22;101840.08;;;-6.72;63.72
35307;BME280;21420;52.196;21.416;2023-02-28T05:31:49;101841.83;;;-6.70;63.81
35307;BME280;21420;52.196;21.416;2023-02-28T05:34:17;101845.25;;;-6.69;63.90
35307;BME280;21420;52.196;21.416;2023-02-28T05:36:44;101844.22;;;-6.65;63.93
35307;BME280;21420;52.196;21.416;2023-02-28T05:39:11;101844.55;;;-6.58;63.92
35307;BME280;21420;52.196;21.416;2023-02-28T05:41:41;101840.95;;;-6.47;63.87
35307;BME280;21420;52.196;21.416;2023-02-28T05:44:09;101843.59;;;-6.31;63.88
35307;BME280;21420;52.196;21.416;2023-02-28T05:46:36;101849.90;;;-6.08;63.97
35307;BME280;21420;52.196;21.416;2023-02-28T05:49:03;101849.38;;;-5.79;64.12
35307;BME280;21420;52.196;21.416;2023-02-28T05:51:30;101850.59;;;-5.44;64.25
35307;BME280;21420;52.196;21.416;2023-02-28T05:53:59;101850.70;;;-5.06;64.30
35307;BME280;21420;52.196;21.416;2023-02-28T05:56:27;101854.96;;;-4.63;64.44
35307;BME280;21420;52.196;21.416;2023-02-28T05:58:54;101857.70;;;-4.19;64.57
35307;BME280;21420;52.196;21.416;2023-02-28T06:01:37;101863.84;;;-3.74;64.65
35307;BME280;21420;52.196;21.416;2023-02-28T06:04:09;101865.08;;;-3.19;64.73
35307;BME280;21420;52.196;21.416;2023-02-28T06:06:54;101868.06;;;-2.60;64.88
35307;BME280;21420;52.196;21.416;2023-02-28T06:09:24;101869.08;;;-2.03;64.86
35307;BME280;21420;52.196;21.416;2023-02-28T06:11:51;101868.28;;;-1.48;64.99
35307;BME280;21420;52.196;21.416;2023-02-28T06:14:19;101868.06;;;-1.00;64.80
35307;BME280;21420;52.196;21.416;2023-02-28T06:16:47;101867.30;;;-0.70;64.68
35307;BME280;21420;52.196;21.416;2023-02-28T06:19:14;101866.54;;;-0.40;64.53
35307;BME280;21420;52.196;21.416;2023-02-28T06:21:42;101864.11;;;-0.17;64.45
35307;BME280;21420;52.196;21.416;2023-02-28T06:24:09;101859.55;;;-0.04;64.28
35307;BME280;21420;52.196;21.416;2023-02-28T06:26:36;101859.52;;;0.12;64.27
35307;BME280;21420;52.196;21.416;2023-02-28T06:29:03;101858.66;;;0.28;64.48
35307;BME280;21420;52.196;21.416;2023-02-28T06:31:30;101862.52;;;0.68;64.79
35307;BME280;21420;52.196;21.416;2023-02-28T06:33:58;101864.86;;;1.27;65.06
35307;BME280;21420;52.196;21.416;2023-02-28T06:36:25;101860.11;;;2.10;65.54
35307;BME280;21420;52.196;21.416;2023-02-28T06:38:52;101857.99;;;3.10;66.01
35307;BME280;21420;52.196;21.416;2023-02-28T06:41:23;101856.21;;;4.06;66.25
35307;BME280;21420;52.196;21.416;2023-02-28T06:43:52;101852.86;;;4.88;66.13
35307;BME280;21420;52.196;21.416;2023-02-28T06:46:19;101848.52;;;5.65;66.23
35307;BME280;21420;52.196;21.416;2023-02-28T06:48:46;101844.59;;;6.26;65.84
35307;BME280;21420;52.196;21.416;2023-02-28T06:51:19;101841.48;;;6.89;65.80
35307;BME280;21420;52.196;21.416;2023-02-28T06:53:51;101837.34;;;7.58;65.81
35307;BME280;21420;52.196;21.416;2023-02-28T06:56:19;101833.98;;;8.26;65.75
35307;BME280;21420;52.196;21.416;2023-02-28T06:58:50;101836.66;;;8.93;65.74
35307;BME280;21420;52.196;21.416;2023-02-28T07:01:19;101832.23;;;9.51;65.51
35307;BME280;21420;52.196;21.416;2023-02-28T07:03:49;101831.29;;;9.94;65.09
35307;BME280;21420;52.196;21.416;2023-02-28T07:06:19;101827.86;;;10.39;64.96
35307;BME280;21420;52.196;21.416;2023-02-28T07:08:50;101823.90;;;10.90;64.65
35307;BME280;21420;52.196;21.416;2023-02-28T07:11:17;101820.65;;;11.23;64.29
35307;BME280;21420;52.196;21.416;2023-02-28T07:13:44;101821.14;;;11.57;64.10
35307;BME280;21420;52.196;21.416;2023-02-28T07:16:11;101822.13;;;11.85;63.74
35307;BME280;21420;52.196;21.416;2023-02-28T07:18:38;101822.65;;;12.19;63.79
35307;BME280;21420;52.196;21.416;2023-02-28T07:21:08;101821.51;;;12.65;63.86
35307;BME280;21420;52.196;21.416;2023-02-28T07:23:36;101819.09;;;13.07;63.65
35307;BME280;21420;52.196;21.416;2023-02-28T07:26:07;101822.63;;;13.27;63.00
35307;BME280;21420;52.196;21.416;2023-02-28T07:28:37;101823.29;;;13.81;63.43
35307;BME280;21420;52.196;21.416;2023-02-28T07:31:06;101824.30;;;14.27;63.10
35307;BME280;21420;52.196;21.416;2023-02-28T07:33:33;101820.98;;;14.52;62.91
35307;BME280;21420;52.196;21.416;2023-02-28T07:36:28;101816.16;;;14.96;62.64
35307;BME280;21420;52.196;21.416;2023-02-28T07:38:55;101815.30;;;15.18;61.98
35307;BME280;21420;52.196;21.416;2023-02-28T07:41:22;101815.70;;;15.68;62.47
35307;BME280;21420;52.196;21.416;2023-02-28T07:43:53;101817.85;;;16.06;61.95
35307;BME280;21420;52.196;21.416;2023-02-28T07:46:21;101817.30;;;16.24;61.62
35307;BME280;21420;52.196;21.416;2023-02-28T07:48:48;101819.09;;;16.30;61.19
35307;BME280;21420;52.196;21.416;2023-02-28T07:51:14;101816.30;;;16.29;60.71
35307;BME280;21420;52.196;21.416;2023-02-28T07:53:42;101815.59;;;16.29;60.40
35307;BME280;21420;52.196;21.416;2023-02-28T07:56:09;101818.52;;;16.36;60.38
35307;BME280;21420;52.196;21.416;2023-02-28T07:58:37;101818.46;;;16.23;59.57
35307;BME280;21420;52.196;21.416;2023-02-28T08:01:09;101821.29;;;16.21;59.63
35307;BME280;21420;52.196;21.416;2023-02-28T08:03:36;101823.99;;;16.44;59.76
35307;BME280;21420;52.196;21.416;2023-02-28T08:06:04;101822.73;;;16.68;59.79
35307;BME280;21420;52.196;21.416;2023-02-28T08:08:32;101827.46;;;17.05;60.20
35307;BME280;21420;52.196;21.416;2023-02-28T08:11:00;101830.68;;;17.44;60.18
35307;BME280;21420;52.196;21.416;2023-02-28T08:13:28;101835.23;;;17.74;60.08
35307;BME280;21420;52.196;21.416;2023-02-28T08:15:56;101835.70;;;17.68;57.83
35307;BME280;21420;52.196;21.416;2023-02-28T08:18:23;101831.17;;;16.89;56.37
35307;BME280;21420;52.196;21.416;2023-02-28T08:20:51;101829.52;;;16.98;57.95
35307;BME280;21420;52.196;21.416;2023-02-28T08:23:18;101825.96;;;17.48;58.23
35307;BME280;21420;52.196;21.416;2023-02-28T08:25:53;101822.83;;;17.46;57.27
35307;BME280;21420;52.196;21.416;2023-02-28T08:28:20;101822.80;;;17.58;57.44
35307;BME280;21420;52.196;21.416;2023-02-28T08:30:50;101820.35;;;17.92;57.87
35307;BME280;21420;52.196;21.416;2023-02-28T08:33:17;101818.70;;;18.14;57.45
35307;BME280;21420;52.196;21.416;2023-02-28T08:35:44;101821.15;;;18.43;57.62
35307;BME280;21420;52.196;21.416;2023-02-28T08:38:10;101823.30;;;18.88;57.72
35307;BME280;21420;52.196;21.416;2023-02-28T08:40:37;101821.89;;;19.27;57.44
35307;BME280;21420;52.196;21.416;2023-02-28T08:43:04;101818.09;;;19.38;57.09
35307;BME280;21420;52.196;21.416;2023-02-28T08:45:31;101819.31;;;19.54;56.89
35307;BME280;21420;52.196;21.416;2023-02-28T08:47:58;101821.49;;;19.73;56.65
35307;BME280;21420;52.196;21.416;2023-02-28T08:50:25;101822.92;;;20.03;56.75
35307;BME280;21420;52.196;21.416;2023-02-28T08:52:52;101829.14;;;20.15;56.22
35307;BME280;21420;52.196;21.416;2023-02-28T08:55:19;101833.28;;;20.28;56.03
35307;BME280;21420;52.196;21.416;2023-02-28T08:57:46;101829.13;;;20.27;55.70
35307;BME280;21420;52.196;21.416;2023-02-28T09:00:13;101825.36;;;20.18;54.97
35307;BME280;21420;52.196;21.416;2023-02-28T09:02:41;101825.30;;;20.07;54.88
35307;BME280;21420;52.196;21.416;2023-02-28T09:05:09;101826.12;;;20.20;54.76
35307;BME280;21420;52.196;21.416;2023-02-28T09:07:36;101825.73;;;20.28;54.60
35307;BME280;21420;52.196;21.416;2023-02-28T09:10:04;101824.02;;;20.47;54.91
35307;BME280;21420;52.196;21.416;2023-02-28T09:12:33;101829.30;;;20.74;54.85
35307;BME280;21420;52.196;21.416;2023-02-28T09:15:02;101829.63;;;20.84;54.55
35307;BME280;21420;52.196;21.416;2023-02-28T09:17:29;101830.79;;;21.01;54.73
35307;BME280;21420;52.196;21.416;2023-02-28T09:19:57;101830.91;;;21.30;54.56
35307;BME280;21420;52.196;21.416;2023-02-28T09:22:24;101830.66;;;21.13;53.83
35307;BME280;21420;52.196;21.416;2023-02-28T09:24:51;101838.95;;;20.94;53.45
35307;BME280;21420;52.196;21.416;2023-02-28T09:27:18;101837.38;;;20.77;53.41
35307;BME280;21420;52.196;21.416;2023-02-28T09:29:45;101837.04;;;20.63;52.98
35307;BME280;21420;52.196;21.416;2023-02-28T09:32:12;101837.76;;;20.54;53.38
35307;BME280;21420;52.196;21.416;2023-02-28T09:34:39;101837.30;;;20.91;53.98
35307;BME280;21420;52.196;21.416;2023-02-28T09:37:07;101836.02;;;21.19;53.55
35307;BME280;21420;52.196;21.416;2023-02-28T09:39:34;101835.94;;;20.85;52.24
35307;BME280;21420;52.196;21.416;2023-02-28T09:42:02;101833.14;;;20.41;52.02
35307;BME280;21420;52.196;21.416;2023-02-28T09:44:36;101833.65;;;20.48;52.44
35307;BME280;21420;52.196;21.416;2023-02-28T09:47:12;101831.48;;;20.58;52.49
35307;BME280;21420;52.196;21.416;2023-02-28T09:49:44;101832.48;;;20.45;52.22
35307;BME280;21420;52.196;21.416;2023-02-28T09:52:22;101832.13;;;20.47;52.29
35307;BME280;21420;52.196;21.416;2023-02-28T09:54:53;101827.64;;;20.75;52.55
35307;BME280;21420;52.196;21.416;2023-02-28T09:57:35;101827.76;;;21.05;52.79
35307;BME280;21420;52.196;21.416;2023-02-28T10:00:15;101830.38;;;21.25;52.61
35307;BME280;21420;52.196;21.416;2023-02-28T10:03:00;101832.48;;;21.59;52.88
35307;BME280;21420;52.196;21.416;2023-02-28T10:08:52;101835.92;;;22.50;53.24
35307;BME280;21420;52.196;21.416;2023-02-28T10:11:23;101838.63;;;23.07;53.44
35307;BME280;21420;52.196;21.416;2023-02-28T10:13:58;101838.86;;;23.52;53.45
35307;BME280;21420;52.196;21.416;2023-02-28T10:19:20;101834.92;;;23.82;53.00
35307;BME280;21420;52.196;21.416;2023-02-28T10:22:04;101833.52;;;23.94;53.02
35307;BME280;21420;52.196;21.416;2023-02-28T10:29:52;101832.53;;;23.15;51.16
35307;BME280;21420;52.196;21.416;2023-02-28T10:32:25;101831.79;;;22.82;51.43
35307;BME280;21420;52.196;21.416;2023-02-28T10:37:27;101828.40;;;22.25;50.78
35307;BME280;21420;52.196;21.416;2023-02-28T10:39:54;101832.49;;;22.14;51.31
35307;BME280;21420;52.196;21.416;2023-02-28T10:42:27;101833.98;;;22.25;51.03
35307;BME280;21420;52.196;21.416;2023-02-28T10:45:15;101829.98;;;22.04;50.57
35307;BME280;21420;52.196;21.416;2023-02-28T10:50:28;101827.33;;;21.72;50.09
35307;BME280;21420;52.196;21.416;2023-02-28T10:53:07;101824.30;;;20.55;48.88
35307;BME280;21420;52.196;21.416;2023-02-28T10:55:35;101821.80;;;19.80;49.21
35307;BME280;21420;52.196;21.416;2023-02-28T10:58:02;101819.65;;;19.83;49.91
35307;BME280;21420;52.196;21.416;2023-02-28T11:00:35;101817.48;;;20.01;50.06
35307;BME280;21420;52.196;21.416;2023-02-28T11:03:28;101816.39;;;20.10;50.02
35307;BME280;21420;52.196;21.416;2023-02-28T11:05:55;101807.28;;;20.15;49.64
35307;BME280;21420;52.196;21.416;2023-02-28T11:08:22;101807.20;;;19.77;48.85
35307;BME280;21420;52.196;21.416;2023-02-28T11:10:56;101802.34;;;19.62;49.29
35307;BME280;21420;52.196;21.416;2023-02-28T11:13:28;101793.58;;;19.39;48.75
35307;BME280;21420;52.196;21.416;2023-02-28T11:16:00;101792.17;;;19.19;48.90
35307;BME280;21420;52.196;21.416;2023-02-28T11:21:02;101782.66;;;19.55;49.56
35307;BME280;21420;52.196;21.416;2023-02-28T11:23:32;101778.91;;;19.65;49.56
35307;BME280;21420;52.196;21.416;2023-02-28T11:26:04;101778.27;;;19.82;49.66
35307;BME280;21420;52.196;21.416;2023-02-28T11:28:32;101773.42;;;20.10;50.02
35307;BME280;21420;52.196;21.416;2023-02-28T11:33:54;101770.23;;;20.84;49.97
35307;BME280;21420;52.196;21.416;2023-02-28T11:36:27;101770.17;;;21.11;49.86
35307;BME280;21420;52.196;21.416;2023-02-28T11:38:58;101764.64;;;21.14;49.38
35307;BME280;21420;52.196;21.416;2023-02-28T11:47:11;101744.82;;;21.24;49.53
35307;BME280;21420;52.196;21.416;2023-02-28T11:49:56;101744.27;;;20.71;46.95
35307;BME280;21420;52.196;21.416;2023-02-28T11:52:38;101741.97;;;19.74;46.48
35307;BME280;21420;52.196;21.416;2023-02-28T11:55:19;101738.80;;;19.02;46.52
35307;BME280;21420;52.196;21.416;2023-02-28T12:09:02;101723.52;;;20.22;48.84
35307;BME280;21420;52.196;21.416;2023-02-28T12:17:21;101722.54;;;20.75;48.50
35307;BME280;21420;52.196;21.416;2023-02-28T12:25:31;101708.77;;;20.80;48.41
35307;BME280;21420;52.196;21.416;2023-02-28T12:28:08;101710.80;;;20.88;48.65
35307;BME280;21420;52.196;21.416;2023-02-28T12:30:41;101707.66;;;20.86;48.15
35307;BME280;21420;52.196;21.416;2023-02-28T12:33:16;101704.85;;;20.94;48.49
35307;BME280;21420;52.196;21.416;2023-02-28T12:35:48;101700.89;;;21.11;48.38
35307;BME280;21420;52.196;21.416;2023-02-28T12:38:19;101698.77;;;21.19;48.38
35307;BME280;21420;52.196;21.416;2023-02-28T12:40:53;101700.33;;;21.01;47.53
35307;BME280;21420;52.196;21.416;2023-02-28T12:43:24;101697.89;;;20.42;46.97
35307;BME280;21420;52.196;21.416;2023-02-28T12:45:56;101691.73;;;19.87;46.57
35307;BME280;21420;52.196;21.416;2023-02-28T12:48:31;101692.98;;;19.36;46.54
35307;BME280;21420;52.196;21.416;2023-02-28T12:50:59;101693.00;;;19.22;47.18
35307;BME280;21420;52.196;21.416;2023-02-28T12:56:19;101693.20;;;19.38;47.60
35307;BME280;21420;52.196;21.416;2023-02-28T12:59:03;101687.20;;;19.48;47.77
35307;BME280;21420;52.196;21.416;2023-02-28T13:01:48;101688.90;;;19.67;48.14
35307;BME280;21420;52.196;21.416;2023-02-28T13:09:57;101672.54;;;19.33;47.02
35307;BME280;21420;52.196;21.416;2023-02-28T13:12:26;101666.66;;;18.93;46.43
35307;BME280;21420;52.196;21.416;2023-02-28T13:15:16;101664.00;;;18.51;46.44
35307;BME280;21420;52.196;21.416;2023-02-28T13:17:49;101660.05;;;18.35;46.79
35307;BME280;21420;52.196;21.416;2023-02-28T13:20:22;101661.42;;;18.15;46.44
35307;BME280;21420;52.196;21.416;2023-02-28T13:22:53;101660.18;;;17.80;46.30
35307;BME280;21420;52.196;21.416;2023-02-28T13:27:51;101657.73;;;17.16;46.25
35307;BME280;21420;52.196;21.416;2023-02-28T13:33:30;101656.09;;;17.09;46.67
35307;BME280;21420;52.196;21.416;2023-02-28T13:38:44;101651.50;;;17.13;46.67
35307;BME280;21420;52.196;21.416;2023-02-28T13:44:17;101640.98;;;16.65;45.90
35307;BME280;21420;52.196;21.416;2023-02-28T13:49:29;101636.70;;;16.26;45.97
35307;BME280;21420;52.196;21.416;2023-02-28T13:54:54;101625.11;;;15.64;45.28
35307;BME280;21420;52.196;21.416;2023-02-28T14:05:33;101610.55;;;14.81;45.52
35307;BME280;21420;52.196;21.416;2023-02-28T14:08:20;101604.00;;;14.69;45.70
35307;BME280;21420;52.196;21.416;2023-02-28T14:11:03;101601.10;;;14.51;45.73
35307;BME280;21420;52.196;21.416;2023-02-28T14:13:42;101603.58;;;14.27;45.51
35307;BME280;21420;52.196;21.416;2023-02-28T14:16:16;101602.20;;;14.07;45.72
35307;BME280;21420;52.196;21.416;2023-02-28T14:19:02;101598.27;;;13.94;45.70
35307;BME280;21420;52.196;21.416;2023-02-28T14:21:35;101594.90;;;13.77;45.63
35307;BME280;21420;52.196;21.416;2023-02-28T14:24:15;101589.58;;;13.68;45.66
35307;BME280;21420;52.196;21.416;2023-02-28T14:27:02;101586.78;;;13.58;45.73
35307;BME280;21420;52.196;21.416;2023-02-28T14:32:45;101592.73;;;13.13;45.34
35307;BME280;21420;52.196;21.416;2023-02-28T14:37:54;101588.32;;;12.71;45.53
35307;BME280;21420;52.196;21.416;2023-02-28T14:40:27;101587.52;;;12.54;45.32
35307;BME280;21420;52.196;21.416;2023-02-28T14:42:58;101585.91;;;12.33;45.34
35307;BME280;21420;52.196;21.416;2023-02-28T14:45:27;101579.85;;;12.18;45.35
35307;BME280;21420;52.196;21.416;2023-02-28T14:47:56;101581.91;;;12.03;45.51
35307;BME280;21420;52.196;21.416;2023-02-28T14:50:31;101582.48;;;11.87;45.56
35307;BME280;21420;52.196;21.416;2023-02-28T14:52:58;101582.77;;;11.70;45.36
35307;BME280;21420;52.196;21.416;2023-02-28T14:55:34;101579.67;;;11.46;45.38